sensor_id;sensor_type;location;lat;lon;timestamp;temperature;humidity
44305;DHT22;30019;50.576;8.568;2024-03-02T00:02:16;2.90;86.50
44305;DHT22;30019;50.576;8.568;2024-03-02T00:04:44;2.80;86.00
44305;DHT22;30019;50.576;8.568;2024-03-02T00:07:10;2.60;87.10
44305;DHT22;30019;50.576;8.568;2024-03-02T00:09:39;2.80;87.90
44305;DHT22;30019;50.576;8.568;2024-03-02T00:12:05;2.70;88.30
44305;DHT22;30019;50.576;8.568;2024-03-02T00:14:30;2.80;88.50
44305;DHT22;30019;50.576;8.568;2024-03-02T00:16:56;2.80;88.10
44305;DHT22;30019;50.576;8.568;2024-03-02T00:19:22;2.80;87.80
44305;DHT22;30019;50.576;8.568;2024-03-02T00:21:47;2.80;87.30
44305;DHT22;30019;50.576;8.568;2024-03-02T00:24:41;2.80;87.20
44305;DHT22;30019;50.576;8.568;2024-03-02T00:27:07;2.80;87.00
44305;DHT22;30019;50.576;8.568;2024-03-02T00:29:33;2.70;86.40
44305;DHT22;30019;50.576;8.568;2024-03-02T00:32:01;2.50;87.30
44305;DHT22;30019;50.576;8.568;2024-03-02T00:34:26;2.70;87.50
44305;DHT22;30019;50.576;8.568;2024-03-02T00:36:52;2.70;87.90
44305;DHT22;30019;50.576;8.568;2024-03-02T00:39:18;2.70;88.20
44305;DHT22;30019;50.576;8.568;2024-03-02T00:41:43;2.70;88.10
44305;DHT22;30019;50.576;8.568;2024-03-02T00:44:12;2.70;87.80
44305;DHT22;30019;50.576;8.568;2024-03-02T00:46:42;2.60;87.50
44305;DHT22;30019;50.576;8.568;2024-03-02T00:49:18;2.50;87.50
44305;DHT22;30019;50.576;8.568;2024-03-02T00:51:47;2.50;87.60
44305;DHT22;30019;50.576;8.568;2024-03-02T00:54:19;2.30;88.00
44305;DHT22;30019;50.576;8.568;2024-03-02T00:56:45;2.30;88.40
44305;DHT22;30019;50.576;8.568;2024-03-02T00:59:12;2.30;88.40
44305;DHT22;30019;50.576;8.568;2024-03-02T01:01:37;2.10;87.60
44305;DHT22;30019;50.576;8.568;2024-03-02T01:04:03;2.10;87.80
44305;DHT22;30019;50.576;8.568;2024-03-02T01:06:29;2.10;87.80
44305;DHT22;30019;50.576;8.568;2024-03-02T01:08:55;2.20;88.10
44305;DHT22;30019;50.576;8.568;2024-03-02T01:11:53;2.20;88.20
44305;DHT22;30019;50.576;8.568;2024-03-02T01:14:18;2.20;89.40
44305;DHT22;30019;50.576;8.568;2024-03-02T01:16:44;2.30;89.50
44305;DHT22;30019;50.576;8.568;2024-03-02T01:19:09;2.30;89.00
44305;DHT22;30019;50.576;8.568;2024-03-02T01:21:35;2.40;88.90
44305;DHT22;30019;50.576;8.568;2024-03-02T01:24:01;2.40;88.40
44305;DHT22;30019;50.576;8.568;2024-03-02T01:26:27;2.30;88.50
44305;DHT22;30019;50.576;8.568;2024-03-02T01:28:52;2.10;89.10
44305;DHT22;30019;50.576;8.568;2024-03-02T01:31:18;2.10;90.00
44305;DHT22;30019;50.576;8.568;2024-03-02T01:33:43;2.20;89.90
44305;DHT22;30019;50.576;8.568;2024-03-02T01:36:09;2.20;90.00
44305;DHT22;30019;50.576;8.568;2024-03-02T01:38:34;2.30;90.00
44305;DHT22;30019;50.576;8.568;2024-03-02T01:41:00;2.30;90.10
44305;DHT22;30019;50.576;8.568;2024-03-02T01:43:25;2.20;90.00
44305;DHT22;30019;50.576;8.568;2024-03-02T01:45:51;2.30;90.20
44305;DHT22;30019;50.576;8.568;2024-03-02T01:48:16;2.60;90.20
44305;DHT22;30019;50.576;8.568;2024-03-02T01:50:42;2.50;89.80
44305;DHT22;30019;50.576;8.568;2024-03-02T01:53:08;2.60;90.20
44305;DHT22;30019;50.576;8.568;2024-03-02T01:55:34;2.70;90.10
44305;DHT22;30019;50.576;8.568;2024-03-02T01:58:00;2.80;90.20
44305;DHT22;30019;50.576;8.568;2024-03-02T02:00:26;2.90;90.10
44305;DHT22;30019;50.576;8.568;2024-03-02T02:02:52;2.90;89.80
44305;DHT22;30019;50.576;8.568;2024-03-02T02:05:18;2.80;89.40
44305;DHT22;30019;50.576;8.568;2024-03-02T02:07:44;2.80;89.10
44305;DHT22;30019;50.576;8.568;2024-03-02T02:10:12;2.90;89.40
44305;DHT22;30019;50.576;8.568;2024-03-02T02:12:38;2.80;89.40
44305;DHT22;30019;50.576;8.568;2024-03-02T02:15:21;2.80;89.30
44305;DHT22;30019;50.576;8.568;2024-03-02T02:17:47;2.90;88.90
44305;DHT22;30019;50.576;8.568;2024-03-02T02:20:12;2.80;88.70
44305;DHT22;30019;50.576;8.568;2024-03-02T02:22:38;2.80;88.80
44305;DHT22;30019;50.576;8.568;2024-03-02T02:25:03;2.70;88.70
44305;DHT22;30019;50.576;8.568;2024-03-02T02:27:29;2.60;88.80
44305;DHT22;30019;50.576;8.568;2024-03-02T02:29:56;2.60;89.00
44305;DHT22;30019;50.576;8.568;2024-03-02T02:32:21;2.50;89.40
44305;DHT22;30019;50.576;8.568;2024-03-02T02:34:47;2.60;89.40
44305;DHT22;30019;50.576;8.568;2024-03-02T02:37:17;2.60;89.10
44305;DHT22;30019;50.576;8.568;2024-03-02T02:39:42;2.50;89.10
44305;DHT22;30019;50.576;8.568;2024-03-02T02:42:08;2.40;89.70
44305;DHT22;30019;50.576;8.568;2024-03-02T02:44:34;2.30;89.30
44305;DHT22;30019;50.576;8.568;2024-03-02T02:46:59;2.30;89.70
44305;DHT22;30019;50.576;8.568;2024-03-02T02:49:25;2.30;89.80
44305;DHT22;30019;50.576;8.568;2024-03-02T02:51:50;2.30;89.60
44305;DHT22;30019;50.576;8.568;2024-03-02T02:54:16;2.30;89.10
44305;DHT22;30019;50.576;8.568;2024-03-02T02:56:41;2.20;89.30
44305;DHT22;30019;50.576;8.568;2024-03-02T02:59:07;2.20;89.20
44305;DHT22;30019;50.576;8.568;2024-03-02T03:01:33;2.00;89.00
44305;DHT22;30019;50.576;8.568;2024-03-02T03:03:58;1.90;89.10
44305;DHT22;30019;50.576;8.568;2024-03-02T03:06:24;2.00;89.80
44305;DHT22;30019;50.576;8.568;2024-03-02T03:08:49;2.00;89.80
44305;DHT22;30019;50.576;8.568;2024-03-02T03:11:15;2.00;89.90
44305;DHT22;30019;50.576;8.568;2024-03-02T03:13:40;2.00;89.80
44305;DHT22;30019;50.576;8.568;2024-03-02T03:16:06;2.00;89.60
44305;DHT22;30019;50.576;8.568;2024-03-02T03:18:31;1.80;88.90
44305;DHT22;30019;50.576;8.568;2024-03-02T03:20:57;1.70;89.00
44305;DHT22;30019;50.576;8.568;2024-03-02T03:23:22;1.70;89.20
44305;DHT22;30019;50.576;8.568;2024-03-02T03:25:48;1.80;89.30
44305;DHT22;30019;50.576;8.568;2024-03-02T03:28:13;1.80;89.10
44305;DHT22;30019;50.576;8.568;2024-03-02T03:30:39;1.80;88.60
44305;DHT22;30019;50.576;8.568;2024-03-02T03:33:05;1.60;88.40
44305;DHT22;30019;50.576;8.568;2024-03-02T03:35:34;1.60;88.90
44305;DHT22;30019;50.576;8.568;2024-03-02T03:38:00;1.60;89.90
44305;DHT22;30019;50.576;8.568;2024-03-02T03:40:25;1.70;89.50
44305;DHT22;30019;50.576;8.568;2024-03-02T03:42:51;1.70;89.60
44305;DHT22;30019;50.576;8.568;2024-03-02T03:45:17;1.60;89.60
44305;DHT22;30019;50.576;8.568;2024-03-02T03:47:42;1.50;89.60
44305;DHT22;30019;50.576;8.568;2024-03-02T03:50:08;1.60;90.00
44305;DHT22;30019;50.576;8.568;2024-03-02T03:52:34;1.60;90.10
44305;DHT22;30019;50.576;8.568;2024-03-02T03:55:00;1.60;90.20
44305;DHT22;30019;50.576;8.568;2024-03-02T03:57:26;1.50;90.10
44305;DHT22;30019;50.576;8.568;2024-03-02T03:59:52;1.60;90.20
44305;DHT22;30019;50.576;8.568;2024-03-02T04:02:18;1.70;90.20
44305;DHT22;30019;50.576;8.568;2024-03-02T04:04:43;1.70;90.10
44305;DHT22;30019;50.576;8.568;2024-03-02T04:07:09;1.70;90.00
44305;DHT22;30019;50.576;8.568;2024-03-02T04:09:34;1.80;90.00
44305;DHT22;30019;50.576;8.568;2024-03-02T04:12:00;1.70;90.00
44305;DHT22;30019;50.576;8.568;2024-03-02T04:14:25;1.70;90.00
44305;DHT22;30019;50.576;8.568;2024-03-02T04:16:51;1.70;90.10
44305;DHT22;30019;50.576;8.568;2024-03-02T04:19:17;1.70;90.10
44305;DHT22;30019;50.576;8.568;2024-03-02T04:21:42;1.80;90.10
44305;DHT22;30019;50.576;8.568;2024-03-02T04:24:08;1.70;90.10
44305;DHT22;30019;50.576;8.568;2024-03-02T04:26:33;1.90;90.30
44305;DHT22;30019;50.576;8.568;2024-03-02T04:28:59;2.00;90.40
44305;DHT22;30019;50.576;8.568;2024-03-02T04:31:24;2.10;90.40
44305;DHT22;30019;50.576;8.568;2024-03-02T04:33:50;2.20;90.40
44305;DHT22;30019;50.576;8.568;2024-03-02T04:36:15;2.20;90.40
44305;DHT22;30019;50.576;8.568;2024-03-02T04:38:41;2.30;90.30
44305;DHT22;30019;50.576;8.568;2024-03-02T04:41:07;2.40;90.40
44305;DHT22;30019;50.576;8.568;2024-03-02T04:43:33;2.40;90.50
44305;DHT22;30019;50.576;8.568;2024-03-02T04:45:59;2.50;90.60
44305;DHT22;30019;50.576;8.568;2024-03-02T04:48:25;2.50;90.70
44305;DHT22;30019;50.576;8.568;2024-03-02T04:50:50;2.50;90.70
44305;DHT22;30019;50.576;8.568;2024-03-02T04:53:16;2.70;90.80
44305;DHT22;30019;50.576;8.568;2024-03-02T04:55:41;2.70;90.90
44305;DHT22;30019;50.576;8.568;2024-03-02T04:58:07;2.70;90.90
44305;DHT22;30019;50.576;8.568;2024-03-02T05:00:33;2.70;90.90
44305;DHT22;30019;50.576;8.568;2024-03-02T05:02:59;2.70;90.80
44305;DHT22;30019;50.576;8.568;2024-03-02T05:05:24;2.70;90.70
44305;DHT22;30019;50.576;8.568;2024-03-02T05:07:50;2.60;90.40
44305;DHT22;30019;50.576;8.568;2024-03-02T05:10:15;2.30;90.30
44305;DHT22;30019;50.576;8.568;2024-03-02T05:12:41;2.20;90.40
44305;DHT22;30019;50.576;8.568;2024-03-02T05:15:13;2.20;90.40
44305;DHT22;30019;50.576;8.568;2024-03-02T05:17:40;2.10;90.30
44305;DHT22;30019;50.576;8.568;2024-03-02T05:20:06;2.10;90.40
44305;DHT22;30019;50.576;8.568;2024-03-02T05:22:33;2.20;90.40
44305;DHT22;30019;50.576;8.568;2024-03-02T05:24:59;2.30;90.30
44305;DHT22;30019;50.576;8.568;2024-03-02T05:27:26;2.20;90.20
44305;DHT22;30019;50.576;8.568;2024-03-02T05:29:52;2.00;90.00
44305;DHT22;30019;50.576;8.568;2024-03-02T05:32:17;1.90;90.30
44305;DHT22;30019;50.576;8.568;2024-03-02T05:34:43;2.10;90.30
44305;DHT22;30019;50.576;8.568;2024-03-02T05:37:08;2.10;90.20
44305;DHT22;30019;50.576;8.568;2024-03-02T05:39:34;2.10;90.20
44305;DHT22;30019;50.576;8.568;2024-03-02T05:41:59;2.20;90.30
44305;DHT22;30019;50.576;8.568;2024-03-02T05:44:26;2.40;90.80
44305;DHT22;30019;50.576;8.568;2024-03-02T05:46:51;2.20;90.80
44305;DHT22;30019;50.576;8.568;2024-03-02T05:49:17;2.10;90.70
44305;DHT22;30019;50.576;8.568;2024-03-02T05:51:43;2.10;90.40
44305;DHT22;30019;50.576;8.568;2024-03-02T05:54:09;2.00;90.40
44305;DHT22;30019;50.576;8.568;2024-03-02T05:56:35;1.90;90.20
44305;DHT22;30019;50.576;8.568;2024-03-02T05:59:00;1.90;90.60
44305;DHT22;30019;50.576;8.568;2024-03-02T06:01:45;1.50;90.20
44305;DHT22;30019;50.576;8.568;2024-03-02T06:04:17;1.50;90.70
44305;DHT22;30019;50.576;8.568;2024-03-02T06:06:43;1.30;90.60
44305;DHT22;30019;50.576;8.568;2024-03-02T06:09:09;1.30;90.60
44305;DHT22;30019;50.576;8.568;2024-03-02T06:11:38;1.20;90.60
44305;DHT22;30019;50.576;8.568;2024-03-02T06:14:04;1.10;90.60
44305;DHT22;30019;50.576;8.568;2024-03-02T06:16:30;1.00;90.50
44305;DHT22;30019;50.576;8.568;2024-03-02T06:18:56;1.00;90.60
44305;DHT22;30019;50.576;8.568;2024-03-02T06:21:23;1.10;90.70
44305;DHT22;30019;50.576;8.568;2024-03-02T06:23:49;1.20;90.80
44305;DHT22;30019;50.576;8.568;2024-03-02T06:26:14;1.20;90.70
44305;DHT22;30019;50.576;8.568;2024-03-02T06:28:40;1.30;90.70
44305;DHT22;30019;50.576;8.568;2024-03-02T06:31:05;1.30;90.60
44305;DHT22;30019;50.576;8.568;2024-03-02T06:33:31;1.50;90.60
44305;DHT22;30019;50.576;8.568;2024-03-02T06:35:57;1.50;90.50
44305;DHT22;30019;50.576;8.568;2024-03-02T06:38:22;1.40;90.50
44305;DHT22;30019;50.576;8.568;2024-03-02T06:40:48;1.50;90.60
44305;DHT22;30019;50.576;8.568;2024-03-02T06:43:13;1.60;90.80
44305;DHT22;30019;50.576;8.568;2024-03-02T06:45:39;1.70;90.90
44305;DHT22;30019;50.576;8.568;2024-03-02T06:48:05;1.80;91.10
44305;DHT22;30019;50.576;8.568;2024-03-02T06:50:30;1.70;91.20
44305;DHT22;30019;50.576;8.568;2024-03-02T06:52:56;1.70;90.90
44305;DHT22;30019;50.576;8.568;2024-03-02T06:55:22;1.50;90.70
44305;DHT22;30019;50.576;8.568;2024-03-02T06:57:49;1.40;90.80
44305;DHT22;30019;50.576;8.568;2024-03-02T07:00:16;1.40;90.80
44305;DHT22;30019;50.576;8.568;2024-03-02T07:02:46;1.40;90.80
44305;DHT22;30019;50.576;8.568;2024-03-02T07:05:13;1.50;90.90
44305;DHT22;30019;50.576;8.568;2024-03-02T07:07:38;1.50;90.90
44305;DHT22;30019;50.576;8.568;2024-03-02T07:10:04;1.60;91.00
44305;DHT22;30019;50.576;8.568;2024-03-02T07:12:30;1.60;90.80
44305;DHT22;30019;50.576;8.568;2024-03-02T07:14:57;1.60;90.80
44305;DHT22;30019;50.576;8.568;2024-03-02T07:17:28;1.70;91.00
44305;DHT22;30019;50.576;8.568;2024-03-02T07:19:54;1.80;91.20
44305;DHT22;30019;50.576;8.568;2024-03-02T07:22:19;2.00;91.30
44305;DHT22;30019;50.576;8.568;2024-03-02T07:24:45;2.30;91.50
44305;DHT22;30019;50.576;8.568;2024-03-02T07:27:15;2.20;91.00
44305;DHT22;30019;50.576;8.568;2024-03-02T07:29:40;2.10;90.90
44305;DHT22;30019;50.576;8.568;2024-03-02T07:32:07;2.10;90.80
44305;DHT22;30019;50.576;8.568;2024-03-02T07:34:33;2.00;90.60
44305;DHT22;30019;50.576;8.568;2024-03-02T07:36:58;2.10;90.80
44305;DHT22;30019;50.576;8.568;2024-03-02T07:39:24;2.00;90.60
44305;DHT22;30019;50.576;8.568;2024-03-02T07:41:50;2.00;90.70
44305;DHT22;30019;50.576;8.568;2024-03-02T07:44:16;2.00;90.60
44305;DHT22;30019;50.576;8.568;2024-03-02T07:46:44;2.00;90.70
44305;DHT22;30019;50.576;8.568;2024-03-02T07:49:11;2.30;91.00
44305;DHT22;30019;50.576;8.568;2024-03-02T07:51:38;2.30;90.50
44305;DHT22;30019;50.576;8.568;2024-03-02T07:54:04;2.40;90.40
44305;DHT22;30019;50.576;8.568;2024-03-02T07:56:29;2.50;90.50
44305;DHT22;30019;50.576;8.568;2024-03-02T07:58:55;2.70;90.70
44305;DHT22;30019;50.576;8.568;2024-03-02T08:01:23;2.90;90.40
44305;DHT22;30019;50.576;8.568;2024-03-02T08:03:48;3.10;90.50
44305;DHT22;30019;50.576;8.568;2024-03-02T08:06:16;3.70;91.60
44305;DHT22;30019;50.576;8.568;2024-03-02T08:08:41;4.10;91.80
44305;DHT22;30019;50.576;8.568;2024-03-02T08:11:07;4.40;90.90
44305;DHT22;30019;50.576;8.568;2024-03-02T08:13:32;4.70;90.40
44305;DHT22;30019;50.576;8.568;2024-03-02T08:15:58;4.90;87.70
44305;DHT22;30019;50.576;8.568;2024-03-02T08:18:24;5.20;87.30
44305;DHT22;30019;50.576;8.568;2024-03-02T08:20:50;5.30;87.10
44305;DHT22;30019;50.576;8.568;2024-03-02T08:23:15;5.50;86.40
44305;DHT22;30019;50.576;8.568;2024-03-02T08:25:42;5.60;84.60
44305;DHT22;30019;50.576;8.568;2024-03-02T08:28:07;5.70;85.80
44305;DHT22;30019;50.576;8.568;2024-03-02T08:30:33;6.10;87.30
44305;DHT22;30019;50.576;8.568;2024-03-02T08:32:59;6.30;86.40
44305;DHT22;30019;50.576;8.568;2024-03-02T08:35:25;6.60;86.40
44305;DHT22;30019;50.576;8.568;2024-03-02T08:37:50;6.80;84.90
44305;DHT22;30019;50.576;8.568;2024-03-02T08:40:16;7.00;83.00
44305;DHT22;30019;50.576;8.568;2024-03-02T08:42:41;7.30;82.20
44305;DHT22;30019;50.576;8.568;2024-03-02T08:45:07;7.40;81.10
44305;DHT22;30019;50.576;8.568;2024-03-02T08:47:33;7.50;78.60
44305;DHT22;30019;50.576;8.568;2024-03-02T08:50:00;7.70;77.40
44305;DHT22;30019;50.576;8.568;2024-03-02T08:52:26;7.80;76.50
44305;DHT22;30019;50.576;8.568;2024-03-02T08:54:52;8.00;74.80
44305;DHT22;30019;50.576;8.568;2024-03-02T08:57:17;8.00;75.80
44305;DHT22;30019;50.576;8.568;2024-03-02T08:59:43;8.00;74.90
44305;DHT22;30019;50.576;8.568;2024-03-02T09:02:09;8.20;75.00
44305;DHT22;30019;50.576;8.568;2024-03-02T09:04:35;8.20;73.60
44305;DHT22;30019;50.576;8.568;2024-03-02T09:07:01;8.30;72.30
44305;DHT22;30019;50.576;8.568;2024-03-02T09:09:26;8.20;72.90
44305;DHT22;30019;50.576;8.568;2024-03-02T09:11:52;8.60;72.30
44305;DHT22;30019;50.576;8.568;2024-03-02T09:14:20;8.70;72.90
44305;DHT22;30019;50.576;8.568;2024-03-02T09:16:46;9.00;71.70
44305;DHT22;30019;50.576;8.568;2024-03-02T09:19:11;9.30;71.80
44305;DHT22;30019;50.576;8.568;2024-03-02T09:21:37;9.20;69.50
44305;DHT22;30019;50.576;8.568;2024-03-02T09:24:03;9.70;71.50
44305;DHT22;30019;50.576;8.568;2024-03-02T09:26:29;10.40;68.50
44305;DHT22;30019;50.576;8.568;2024-03-02T09:28:54;11.40;62.30
44305;DHT22;30019;50.576;8.568;2024-03-02T09:31:20;11.30;60.20
44305;DHT22;30019;50.576;8.568;2024-03-02T09:33:45;11.30;60.50
44305;DHT22;30019;50.576;8.568;2024-03-02T09:36:21;11.40;60.20
44305;DHT22;30019;50.576;8.568;2024-03-02T09:38:47;11.40;59.80
44305;DHT22;30019;50.576;8.568;2024-03-02T09:41:14;11.50;60.20
44305;DHT22;30019;50.576;8.568;2024-03-02T09:43:40;11.70;59.40
44305;DHT22;30019;50.576;8.568;2024-03-02T09:46:09;11.30;59.20
44305;DHT22;30019;50.576;8.568;2024-03-02T09:48:35;11.20;59.80
44305;DHT22;30019;50.576;8.568;2024-03-02T09:51:00;11.70;59.50
44305;DHT22;30019;50.576;8.568;2024-03-02T09:53:31;11.90;59.40
44305;DHT22;30019;50.576;8.568;2024-03-02T09:55:58;11.70;58.40
44305;DHT22;30019;50.576;8.568;2024-03-02T09:58:23;11.70;59.00
44305;DHT22;30019;50.576;8.568;2024-03-02T10:00:49;11.90;58.50
44305;DHT22;30019;50.576;8.568;2024-03-02T10:03:15;11.80;57.20
44305;DHT22;30019;50.576;8.568;2024-03-02T10:05:40;11.70;57.30
44305;DHT22;30019;50.576;8.568;2024-03-02T10:08:06;11.80;58.00
44305;DHT22;30019;50.576;8.568;2024-03-02T10:10:39;12.00;56.00
44305;DHT22;30019;50.576;8.568;2024-03-02T10:13:07;12.00;57.00
44305;DHT22;30019;50.576;8.568;2024-03-02T10:15:33;11.80;55.80
44305;DHT22;30019;50.576;8.568;2024-03-02T10:17:59;11.70;57.70
44305;DHT22;30019;50.576;8.568;2024-03-02T10:20:26;11.70;57.90
44305;DHT22;30019;50.576;8.568;2024-03-02T10:22:52;12.20;56.70
44305;DHT22;30019;50.576;8.568;2024-03-02T10:25:33;12.70;56.30
44305;DHT22;30019;50.576;8.568;2024-03-02T10:27:59;12.70;56.10
44305;DHT22;30019;50.576;8.568;2024-03-02T10:30:26;12.90;55.50
44305;DHT22;30019;50.576;8.568;2024-03-02T10:32:56;13.20;54.70
44305;DHT22;30019;50.576;8.568;2024-03-02T10:35:22;13.60;53.60
44305;DHT22;30019;50.576;8.568;2024-03-02T10:37:52;13.40;53.60
44305;DHT22;30019;50.576;8.568;2024-03-02T10:40:21;13.40;53.00
44305;DHT22;30019;50.576;8.568;2024-03-02T10:42:47;13.00;53.50
44305;DHT22;30019;50.576;8.568;2024-03-02T10:45:15;13.60;54.40
44305;DHT22;30019;50.576;8.568;2024-03-02T10:47:42;13.80;53.50
44305;DHT22;30019;50.576;8.568;2024-03-02T10:50:08;13.40;53.00
44305;DHT22;30019;50.576;8.568;2024-03-02T10:52:37;13.10;52.50
44305;DHT22;30019;50.576;8.568;2024-03-02T10:55:05;13.10;53.30
44305;DHT22;30019;50.576;8.568;2024-03-02T11:00:15;14.30;51.50
44305;DHT22;30019;50.576;8.568;2024-03-02T11:02:50;14.50;50.40
44305;DHT22;30019;50.576;8.568;2024-03-02T11:05:27;14.70;50.80
44305;DHT22;30019;50.576;8.568;2024-03-02T11:07:58;15.50;49.40
44305;DHT22;30019;50.576;8.568;2024-03-02T11:10:27;15.80;48.20
44305;DHT22;30019;50.576;8.568;2024-03-02T11:13:02;16.00;47.70
44305;DHT22;30019;50.576;8.568;2024-03-02T11:15:30;15.10;48.20
44305;DHT22;30019;50.576;8.568;2024-03-02T11:17:57;14.30;49.50
44305;DHT22;30019;50.576;8.568;2024-03-02T11:20:23;14.50;50.50
44305;DHT22;30019;50.576;8.568;2024-03-02T11:22:50;13.40;50.30
44305;DHT22;30019;50.576;8.568;2024-03-02T11:25:26;13.20;51.70
44305;DHT22;30019;50.576;8.568;2024-03-02T11:27:59;14.30;51.70
44305;DHT22;30019;50.576;8.568;2024-03-02T11:33:09;15.30;48.50
44305;DHT22;30019;50.576;8.568;2024-03-02T11:35:42;15.70;48.60
44305;DHT22;30019;50.576;8.568;2024-03-02T11:38:09;15.60;47.80
44305;DHT22;30019;50.576;8.568;2024-03-02T11:40:35;15.80;48.30
44305;DHT22;30019;50.576;8.568;2024-03-02T11:43:01;15.40;48.30
44305;DHT22;30019;50.576;8.568;2024-03-02T11:45:27;15.10;48.70
44305;DHT22;30019;50.576;8.568;2024-03-02T11:47:59;14.90;49.00
44305;DHT22;30019;50.576;8.568;2024-03-02T11:50:34;14.10;50.70
44305;DHT22;30019;50.576;8.568;2024-03-02T11:53:05;13.90;50.80
44305;DHT22;30019;50.576;8.568;2024-03-02T11:55:34;13.70;51.80
44305;DHT22;30019;50.576;8.568;2024-03-02T11:58:03;13.40;51.30
44305;DHT22;30019;50.576;8.568;2024-03-02T12:00:29;13.10;51.70
44305;DHT22;30019;50.576;8.568;2024-03-02T12:03:09;13.10;51.40
44305;DHT22;30019;50.576;8.568;2024-03-02T12:05:35;13.00;52.80
44305;DHT22;30019;50.576;8.568;2024-03-02T12:08:03;13.30;53.40
44305;DHT22;30019;50.576;8.568;2024-03-02T12:10:29;13.30;51.30
44305;DHT22;30019;50.576;8.568;2024-03-02T12:13:05;13.20;52.00
44305;DHT22;30019;50.576;8.568;2024-03-02T12:15:38;13.30;51.30
44305;DHT22;30019;50.576;8.568;2024-03-02T12:18:05;13.20;52.90
44305;DHT22;30019;50.576;8.568;2024-03-02T12:20:32;13.10;52.50
44305;DHT22;30019;50.576;8.568;2024-03-02T12:22:59;12.90;53.90
44305;DHT22;30019;50.576;8.568;2024-03-02T12:25:26;12.70;53.30
44305;DHT22;30019;50.576;8.568;2024-03-02T12:27:57;12.60;53.50
44305;DHT22;30019;50.576;8.568;2024-03-02T12:30:23;12.70;54.00
44305;DHT22;30019;50.576;8.568;2024-03-02T12:32:49;14.00;53.30
44305;DHT22;30019;50.576;8.568;2024-03-02T12:35:15;15.40;49.80
44305;DHT22;30019;50.576;8.568;2024-03-02T12:37:48;15.90;48.70
44305;DHT22;30019;50.576;8.568;2024-03-02T12:40:16;16.00;47.30
44305;DHT22;30019;50.576;8.568;2024-03-02T12:42:44;15.80;48.50
44305;DHT22;30019;50.576;8.568;2024-03-02T12:45:10;16.10;47.80
44305;DHT22;30019;50.576;8.568;2024-03-02T12:47:36;16.70;45.80
44305;DHT22;30019;50.576;8.568;2024-03-02T12:50:03;17.20;45.90
44305;DHT22;30019;50.576;8.568;2024-03-02T12:52:29;16.70;45.30
44305;DHT22;30019;50.576;8.568;2024-03-02T12:54:55;16.00;46.20
44305;DHT22;30019;50.576;8.568;2024-03-02T12:57:28;16.80;46.00
44305;DHT22;30019;50.576;8.568;2024-03-02T13:00:04;17.00;44.80
44305;DHT22;30019;50.576;8.568;2024-03-02T13:02:40;16.80;45.10
44305;DHT22;30019;50.576;8.568;2024-03-02T13:05:07;17.80;43.80
44305;DHT22;30019;50.576;8.568;2024-03-02T13:07:37;18.60;44.60
44305;DHT22;30019;50.576;8.568;2024-03-02T13:10:03;18.20;43.50
44305;DHT22;30019;50.576;8.568;2024-03-02T13:12:30;18.20;45.20
44305;DHT22;30019;50.576;8.568;2024-03-02T13:14:57;17.90;44.20
44305;DHT22;30019;50.576;8.568;2024-03-02T13:17:23;16.90;44.00
44305;DHT22;30019;50.576;8.568;2024-03-02T13:22:18;17.10;44.30
44305;DHT22;30019;50.576;8.568;2024-03-02T13:24:44;16.90;44.80
44305;DHT22;30019;50.576;8.568;2024-03-02T13:27:10;16.90;45.50
44305;DHT22;30019;50.576;8.568;2024-03-02T13:29:35;17.70;44.30
44305;DHT22;30019;50.576;8.568;2024-03-02T13:32:01;18.30;42.90
44305;DHT22;30019;50.576;8.568;2024-03-02T13:34:26;18.30;42.70
44305;DHT22;30019;50.576;8.568;2024-03-02T13:36:52;17.70;42.20
44305;DHT22;30019;50.576;8.568;2024-03-02T13:39:17;17.80;44.40
44305;DHT22;30019;50.576;8.568;2024-03-02T13:41:44;18.00;43.30
44305;DHT22;30019;50.576;8.568;2024-03-02T13:44:17;17.40;43.30
44305;DHT22;30019;50.576;8.568;2024-03-02T13:46:43;17.10;43.00
44305;DHT22;30019;50.576;8.568;2024-03-02T13:49:11;17.60;43.90
44305;DHT22;30019;50.576;8.568;2024-03-02T13:51:37;16.90;42.90
44305;DHT22;30019;50.576;8.568;2024-03-02T13:54:02;17.80;43.50
44305;DHT22;30019;50.576;8.568;2024-03-02T13:56:29;17.30;42.50
44305;DHT22;30019;50.576;8.568;2024-03-02T13:58:55;17.70;43.80
44305;DHT22;30019;50.576;8.568;2024-03-02T14:01:20;17.90;42.00
44305;DHT22;30019;50.576;8.568;2024-03-02T14:03:46;18.50;42.00
44305;DHT22;30019;50.576;8.568;2024-03-02T14:06:12;18.50;40.90
44305;DHT22;30019;50.576;8.568;2024-03-02T14:08:38;18.80;41.60
44305;DHT22;30019;50.576;8.568;2024-03-02T14:11:03;18.50;41.60
44305;DHT22;30019;50.576;8.568;2024-03-02T14:13:29;18.00;41.00
44305;DHT22;30019;50.576;8.568;2024-03-02T14:15:54;19.10;40.60
44305;DHT22;30019;50.576;8.568;2024-03-02T14:18:20;18.80;40.70
44305;DHT22;30019;50.576;8.568;2024-03-02T14:20:46;18.40;40.60
44305;DHT22;30019;50.576;8.568;2024-03-02T14:23:18;18.70;39.80
44305;DHT22;30019;50.576;8.568;2024-03-02T14:25:44;18.90;39.90
44305;DHT22;30019;50.576;8.568;2024-03-02T14:28:10;19.40;40.10
44305;DHT22;30019;50.576;8.568;2024-03-02T14:30:37;18.50;39.20
44305;DHT22;30019;50.576;8.568;2024-03-02T14:33:03;18.30;40.00
44305;DHT22;30019;50.576;8.568;2024-03-02T14:35:28;18.60;40.00
44305;DHT22;30019;50.576;8.568;2024-03-02T14:37:54;18.50;40.20
44305;DHT22;30019;50.576;8.568;2024-03-02T14:40:20;18.00;39.30
44305;DHT22;30019;50.576;8.568;2024-03-02T14:42:47;18.30;40.50
44305;DHT22;30019;50.576;8.568;2024-03-02T14:45:13;17.80;39.90
44305;DHT22;30019;50.576;8.568;2024-03-02T14:47:39;17.20;40.90
44305;DHT22;30019;50.576;8.568;2024-03-02T14:50:05;17.00;41.40
44305;DHT22;30019;50.576;8.568;2024-03-02T14:52:35;16.80;42.60
44305;DHT22;30019;50.576;8.568;2024-03-02T14:55:01;16.60;42.30
44305;DHT22;30019;50.576;8.568;2024-03-02T14:57:28;15.90;42.60
44305;DHT22;30019;50.576;8.568;2024-03-02T14:59:53;15.40;43.40
44305;DHT22;30019;50.576;8.568;2024-03-02T15:02:20;15.20;44.10
44305;DHT22;30019;50.576;8.568;2024-03-02T15:04:45;15.10;44.20
44305;DHT22;30019;50.576;8.568;2024-03-02T15:07:13;15.00;44.40
44305;DHT22;30019;50.576;8.568;2024-03-02T15:09:38;15.00;44.80
44305;DHT22;30019;50.576;8.568;2024-03-02T15:12:04;14.50;45.20
44305;DHT22;30019;50.576;8.568;2024-03-02T15:14:31;14.20;45.40
44305;DHT22;30019;50.576;8.568;2024-03-02T15:16:57;14.00;45.50
44305;DHT22;30019;50.576;8.568;2024-03-02T15:19:23;14.10;47.60
44305;DHT22;30019;50.576;8.568;2024-03-02T15:21:48;14.20;46.70
44305;DHT22;30019;50.576;8.568;2024-03-02T15:24:14;13.90;46.40
44305;DHT22;30019;50.576;8.568;2024-03-02T15:26:39;13.90;46.90
44305;DHT22;30019;50.576;8.568;2024-03-02T15:29:05;13.80;46.80
44305;DHT22;30019;50.576;8.568;2024-03-02T15:31:30;13.80;47.40
44305;DHT22;30019;50.576;8.568;2024-03-02T15:33:56;13.50;46.60
44305;DHT22;30019;50.576;8.568;2024-03-02T15:36:22;13.50;47.40
44305;DHT22;30019;50.576;8.568;2024-03-02T15:38:48;13.50;48.20
44305;DHT22;30019;50.576;8.568;2024-03-02T15:41:14;13.50;49.00
44305;DHT22;30019;50.576;8.568;2024-03-02T15:43:39;13.50;48.10
44305;DHT22;30019;50.576;8.568;2024-03-02T15:46:07;13.40;48.90